Weather History for KTTF - May, 2014

Change the Weather History Date:

Sunday, May 25, 2014

  Actual Average Record
Temperature  
Mean Temperature 66 °F -  
Max Temperature 80 °F 71 °F 91 °F (2012)
Min Temperature 53 °F 51 °F 35 °F (1992)
Cooling Degree Days 2    
Growing Degree Days 16 (Base 50)    
Moisture  
Dew Point 52 °F    
Average Humidity 63    
Maximum Humidity 94    
Minimum Humidity 34    
Precipitation  
Precipitation 0.00 in - - ()
Sea Level Pressure  
Sea Level Pressure 30.12 in    
Wind  
Wind Speed 2 mph (SSE)    
Max Wind Speed 9 mph    
Max Gust Speed -    
Visibility 10 miles    
Events      
Averages and records for this station are not official NWS values.
T = Trace of Precipitation, MM = Missing Value Source: NWS Daily Summary

Daily Weather History Graph

Daily Weather History Graph

Search for Another Location

Airport or City:

Trip Planner

Search our weather history database for the weather conditions in past years. The results will help you decide how hot, cold, wet, or windy it might be!

Date:

Astronomy

May. 25, 2014 Rise Set
Actual Time 6:04 AM EDT 8:56 PM EDT
Civil Twilight 5:32 AM EDT 9:29 PM EDT
Nautical Twilight 4:50 AM EDT 10:11 PM EDT
Astronomical Twilight 4:02 AM EDT 11:00 PM EDT
Moon 4:12 AM EDT (5/25) 5:53 PM EDT (5/25)
Length of Visible Light 15h 57m
Length of Day
14h 51m
Waning Crescent, 10% of the Moon is Illuminated
May 25
Waning Crescent
May 28
New
Jun 5
First Quarter
Jun 13
Full
Jun 19
Last Quarter

Hourly Weather History & Observations

Time (EDT) Temp. Dew Point Humidity Pressure Visibility Wind Dir Wind Speed Gust Speed Precip Events Conditions
12:16 AM 57.2 °F 53.6 °F 88% 30.14 in 10.0 mi Calm Calm - N/A   Clear
12:36 AM 57.2 °F 53.6 °F 88% 30.14 in 10.0 mi Calm Calm - N/A   Clear
12:56 AM 55.4 °F 51.8 °F 88% 30.14 in 10.0 mi Calm Calm - N/A   Clear
1:16 AM 55.4 °F 51.8 °F 88% 30.14 in 10.0 mi Calm Calm - N/A   Clear
1:36 AM 55.4 °F 51.8 °F 88% 30.13 in 10.0 mi Calm Calm - N/A   Clear
2:11 AM 55.4 °F 53.6 °F 94% 30.13 in 10.0 mi Calm Calm - N/A   Clear
2:31 AM 55.4 °F 51.8 °F 88% 30.13 in 10.0 mi Calm Calm - N/A   Clear
2:51 AM 55.4 °F 51.8 °F 88% 30.13 in 10.0 mi Calm Calm - N/A   Clear
3:11 AM 55.4 °F 51.8 °F 88% 30.13 in 10.0 mi Calm Calm - N/A   Clear
3:32 AM 55.4 °F 51.8 °F 88% 30.13 in 10.0 mi Calm Calm - N/A   Clear
3:52 AM 55.4 °F 51.8 °F 88% 30.13 in 10.0 mi Calm Calm - N/A   Clear
4:12 AM 57.2 °F 51.8 °F 82% 30.13 in 10.0 mi Calm Calm - N/A   Clear
4:32 AM 55.4 °F 50.0 °F 82% 30.13 in 10.0 mi Calm Calm - N/A   Clear
4:52 AM 53.6 °F 51.8 °F 94% 30.14 in 10.0 mi Calm Calm - N/A   Clear
5:12 AM 53.6 °F 51.8 °F 94% 30.14 in 10.0 mi Calm Calm - N/A   Clear
5:32 AM 53.6 °F 51.8 °F 94% 30.14 in 10.0 mi Calm Calm - N/A   Clear
5:52 AM 53.6 °F 50.0 °F 88% 30.14 in 10.0 mi Calm Calm - N/A   Clear
6:12 AM 53.6 °F 50.0 °F 88% 30.15 in 10.0 mi Calm Calm - N/A   Clear
6:33 AM 53.6 °F 50.0 °F 88% 30.15 in 10.0 mi Calm Calm - N/A   Clear
6:53 AM 53.6 °F 51.8 °F 94% 30.16 in 10.0 mi Calm Calm - N/A   Clear
7:13 AM 55.4 °F 51.8 °F 88% 30.17 in 10.0 mi Calm Calm - N/A   Clear
7:33 AM 57.2 °F 53.6 °F 88% 30.17 in 10.0 mi Calm Calm - N/A   Clear
7:53 AM 59.0 °F 51.8 °F 77% 30.17 in 10.0 mi Calm Calm - N/A   Clear
8:13 AM 60.8 °F 53.6 °F 77% 30.17 in 10.0 mi Calm Calm - N/A   Clear
8:33 AM 62.6 °F 53.6 °F 72% 30.17 in 10.0 mi Calm Calm - N/A   Clear
8:53 AM 64.4 °F 55.4 °F 73% 30.17 in 10.0 mi Calm Calm - N/A   Clear
9:13 AM 66.2 °F 53.6 °F 64% 30.17 in 10.0 mi Calm Calm - N/A   Clear
9:34 AM 69.8 °F 53.6 °F 56% 30.17 in 10.0 mi Calm Calm - N/A   Clear
9:54 AM 71.6 °F 53.6 °F 53% 30.17 in 10.0 mi Calm Calm - N/A   Clear
10:14 AM 71.6 °F 53.6 °F 53% 30.17 in 10.0 mi Calm Calm - N/A   Clear
11:14 AM 75.2 °F 51.8 °F 44% 30.16 in 10.0 mi WSW 5.8 mph - N/A   Clear
11:34 AM 75.2 °F 51.8 °F 44% 30.16 in 10.0 mi WSW 4.6 mph - N/A   Clear
11:54 AM 77.0 °F 48.2 °F 36% 30.16 in 10.0 mi WNW 3.5 mph - N/A   Clear
12:14 PM 77.0 °F 48.2 °F 36% 30.15 in 10.0 mi Calm Calm - N/A   Clear
12:34 PM 77.0 °F 48.2 °F 36% 30.15 in 10.0 mi SSW 4.6 mph - N/A   Clear
12:54 PM 77.0 °F 48.2 °F 36% 30.15 in 10.0 mi SW 5.8 mph - N/A   Clear
1:15 PM 78.8 °F 48.2 °F 34% 30.14 in 10.0 mi Calm Calm - N/A   Clear
1:35 PM 78.8 °F 48.2 °F 34% 30.14 in 10.0 mi Calm Calm - N/A   Clear
1:55 PM 78.8 °F 51.8 °F 39% 30.13 in 10.0 mi Calm Calm - N/A   Scattered Clouds
2:15 PM 78.8 °F 48.2 °F 34% 30.13 in 10.0 mi Calm Calm - N/A   Scattered Clouds
2:35 PM 78.8 °F 48.2 °F 34% 30.12 in 10.0 mi Calm Calm - N/A   Clear
2:55 PM 80.6 °F 51.8 °F 37% 30.12 in 10.0 mi South 8.1 mph - N/A   Clear
3:15 PM 80.6 °F 51.8 °F 37% 30.12 in 10.0 mi SE 5.8 mph - N/A   Clear
3:35 PM 80.6 °F 51.8 °F 37% 30.12 in 10.0 mi SSE 4.6 mph - N/A   Clear
3:55 PM 78.8 °F 51.8 °F 39% 30.11 in 10.0 mi SE 9.2 mph - N/A   Clear
4:16 PM 80.6 °F 51.8 °F 37% 30.11 in 10.0 mi SE 8.1 mph - N/A   Clear
4:36 PM 78.8 °F 53.6 °F 42% 30.10 in 10.0 mi SSE 9.2 mph - N/A   Clear
4:56 PM 78.8 °F 53.6 °F 42% 30.10 in 10.0 mi SE 6.9 mph - N/A   Clear
5:16 PM 78.8 °F 51.8 °F 39% 30.10 in 10.0 mi SE 6.9 mph - N/A   Clear
5:36 PM 78.8 °F 51.8 °F 39% 30.09 in 10.0 mi ESE 5.8 mph - N/A   Clear
5:56 PM 77.0 °F 51.8 °F 41% 30.08 in 10.0 mi SSE 8.1 mph - N/A   Clear
6:16 PM 75.2 °F 53.6 °F 47% 30.07 in 10.0 mi SSE 8.1 mph - N/A   Clear
6:31 PM 75.2 °F 53.6 °F 47% 30.07 in 10.0 mi SSE 6.9 mph - N/A   Clear
6:51 PM 75.2 °F 53.6 °F 47% 30.07 in 10.0 mi SSE 6.9 mph - N/A   Clear
7:12 PM 73.4 °F 51.8 °F 47% 30.07 in 10.0 mi SSE 6.9 mph - N/A   Clear
7:32 PM 73.4 °F 53.6 °F 50% 30.07 in 10.0 mi SSE 5.8 mph - N/A   Clear
7:52 PM 71.6 °F 53.6 °F 53% 30.07 in 10.0 mi SSE 6.9 mph - N/A   Clear
8:12 PM 71.6 °F 53.6 °F 53% 30.07 in 10.0 mi SSE 6.9 mph - N/A   Clear
8:32 PM 69.8 °F 53.6 °F 56% 30.07 in 10.0 mi SSE 6.9 mph - N/A   Clear
8:52 PM 69.8 °F 53.6 °F 56% 30.07 in 10.0 mi SE 5.8 mph - N/A   Clear
9:12 PM 66.2 °F 53.6 °F 64% 30.07 in 10.0 mi SSE 4.6 mph - N/A   Clear
9:32 PM 66.2 °F 53.6 °F 64% 30.07 in 10.0 mi SSE 6.9 mph - N/A   Clear
9:52 PM 66.2 °F 53.6 °F 64% 30.07 in 10.0 mi SSE 4.6 mph - N/A   Clear
10:12 PM 66.2 °F 53.6 °F 64% 30.08 in 10.0 mi SSE 4.6 mph - N/A   Clear
10:33 PM 64.4 °F 53.6 °F 68% 30.08 in 10.0 mi SSE 4.6 mph - N/A   Clear
10:53 PM 64.4 °F 53.6 °F 68% 30.08 in 10.0 mi SSE 4.6 mph - N/A   Clear
11:13 PM 64.4 °F 53.6 °F 68% 30.07 in 10.0 mi SE 3.5 mph - N/A   Clear
11:33 PM 62.6 °F 53.6 °F 72% 30.07 in 10.0 mi Calm Calm - N/A   Clear
11:53 PM 64.4 °F 53.6 °F 68% 30.07 in 10.0 mi Calm Calm - N/A   Clear